createdAt,value
2018-09-06T00:00:21.048Z,1009.77
2018-09-06T00:01:21.046Z,1009.75
2018-09-06T00:02:21.043Z,1009.82
2018-09-06T00:03:21.044Z,1009.78
2018-09-06T00:04:21.040Z,1009.77
2018-09-06T00:05:21.045Z,1009.78
2018-09-06T00:06:21.043Z,1009.79
2018-09-06T00:07:21.046Z,1009.78
2018-09-06T00:08:21.044Z,1009.78
2018-09-06T00:09:21.038Z,1009.74
2018-09-06T00:10:21.038Z,1009.73
2018-09-06T00:11:21.042Z,1009.71
2018-09-06T00:12:21.041Z,1009.75
2018-09-06T00:13:21.035Z,1009.69
2018-09-06T00:14:21.035Z,1009.69
2018-09-06T00:15:21.035Z,1009.70
2018-09-06T00:16:21.035Z,1009.67
2018-09-06T00:17:21.037Z,1009.62
2018-09-06T00:18:21.037Z,1009.60
2018-09-06T00:19:21.037Z,1009.63
2018-09-06T00:20:21.036Z,1009.63
2018-09-06T00:21:21.030Z,1009.57
2018-09-06T00:22:21.030Z,1009.60
2018-09-06T00:23:21.030Z,1009.57
2018-09-06T00:24:21.030Z,1009.56
2018-09-06T00:25:21.037Z,1009.54
2018-09-06T00:26:21.036Z,1009.51
2018-09-06T00:27:21.027Z,1009.44
2018-09-06T00:28:21.028Z,1009.44
2018-09-06T00:29:21.030Z,1009.44
2018-09-06T00:30:21.030Z,1009.40
2018-09-06T00:31:21.029Z,1009.36
2018-09-06T00:32:21.028Z,1009.40
2018-09-06T00:33:21.027Z,1009.32
2018-09-06T00:34:21.021Z,1009.32
2018-09-06T00:35:21.021Z,1009.28
2018-09-06T00:36:21.020Z,1009.28
2018-09-06T00:37:21.025Z,1009.33
2018-09-06T00:38:21.024Z,1009.28
2018-09-06T00:39:21.024Z,1009.29
2018-09-06T00:40:21.024Z,1009.30
2018-09-06T00:41:21.023Z,1009.28
2018-09-06T00:42:21.017Z,1009.28
2018-09-06T00:43:21.022Z,1009.30
2018-09-06T00:44:21.022Z,1009.30
2018-09-06T00:45:21.014Z,1009.23
2018-09-06T00:46:21.013Z,1009.24
2018-09-06T00:47:21.014Z,1009.23
2018-09-06T00:48:21.012Z,1009.24
2018-09-06T00:49:21.014Z,1009.22
2018-09-06T00:50:21.014Z,1009.22
2018-09-06T00:51:21.015Z,1009.24
2018-09-06T00:52:21.013Z,1009.25
2018-09-06T00:53:21.007Z,1009.19
2018-09-06T00:54:21.007Z,1009.20
2018-09-06T00:55:21.006Z,1009.23
2018-09-06T00:56:21.006Z,1009.21
2018-09-06T00:57:21.009Z,1009.20
2018-09-06T00:58:21.012Z,1009.14
2018-09-06T00:59:21.004Z,1009.15
2018-09-06T01:00:21.001Z,1009.17
2018-09-06T01:01:21.006Z,1009.12
2018-09-06T01:02:21.004Z,1009.11
2018-09-06T01:03:21.003Z,1009.11
2018-09-06T01:04:21.006Z,1009.09
2018-09-06T01:05:20.997Z,1009.10
2018-09-06T01:06:20.999Z,1009.02
2018-09-06T01:07:20.995Z,1009.04
2018-09-06T01:08:21.000Z,1009.03
2018-09-06T01:09:20.998Z,1009.02
2018-09-06T01:10:20.998Z,1009.00
2018-09-06T01:11:20.998Z,1009.01
2018-09-06T01:12:20.997Z,1009.00
2018-09-06T01:13:20.990Z,1009.01
2018-09-06T01:14:20.989Z,1008.97
2018-09-06T01:15:20.993Z,1008.98
2018-09-06T01:16:20.993Z,1008.93
2018-09-06T01:17:20.988Z,1008.96
2018-09-06T01:18:20.986Z,1008.94
2018-09-06T01:19:20.986Z,1008.97
2018-09-06T01:20:20.986Z,1008.92
2018-09-06T01:21:20.989Z,1008.91
2018-09-06T01:22:20.989Z,1008.88
2018-09-06T01:23:20.988Z,1008.90
2018-09-06T01:24:20.988Z,1008.83
2018-09-06T01:25:20.980Z,1008.88
2018-09-06T01:26:20.980Z,1008.87
2018-09-06T01:27:20.981Z,1008.87
2018-09-06T01:28:20.977Z,1008.86
2018-09-06T01:29:20.981Z,1008.86
2018-09-06T01:30:20.980Z,1008.84
2018-09-06T01:31:20.973Z,1008.82
2018-09-06T01:32:20.975Z,1008.83
2018-09-06T01:33:20.977Z,1008.87
2018-09-06T01:34:20.977Z,1008.83
2018-09-06T01:35:20.977Z,1008.84
2018-09-06T01:36:20.974Z,1008.83
2018-09-06T01:37:20.969Z,1008.85
2018-09-06T01:38:20.979Z,1008.80
2018-09-06T01:39:20.972Z,1008.80
2018-09-06T01:40:20.966Z,1008.81
2018-09-06T01:41:20.969Z,1008.81
2018-09-06T01:42:20.969Z,1008.83
2018-09-06T01:43:20.968Z,1008.85
2018-09-06T01:44:20.971Z,1008.83
2018-09-06T01:45:20.961Z,1008.84
2018-09-06T01:46:20.959Z,1008.83
2018-09-06T01:47:20.963Z,1008.84
2018-09-06T01:48:20.962Z,1008.81
2018-09-06T01:49:20.957Z,1008.83
2018-09-06T01:50:20.955Z,1008.83
2018-09-06T01:51:20.959Z,1008.82
2018-09-06T01:52:20.957Z,1008.83
2018-09-06T01:53:20.966Z,1008.87
2018-09-06T01:54:20.957Z,1008.79
2018-09-06T01:55:20.955Z,1008.85
2018-09-06T01:56:20.955Z,1008.88
2018-09-06T01:57:20.949Z,1008.86
2018-09-06T01:58:20.948Z,1008.93
2018-09-06T01:59:20.947Z,1008.93
2018-09-06T02:00:20.950Z,1008.97
2018-09-06T02:01:20.950Z,1009.07
2018-09-06T02:02:20.949Z,1009.16
2018-09-06T02:03:20.944Z,1009.20
2018-09-06T02:04:20.943Z,1009.27
2018-09-06T02:05:20.946Z,1009.35
2018-09-06T02:06:20.945Z,1009.41
2018-09-06T02:07:20.944Z,1009.36
2018-09-06T02:08:20.942Z,1009.42
2018-09-06T02:09:20.936Z,1009.38
2018-09-06T02:10:20.942Z,1009.41
2018-09-06T02:11:20.936Z,1009.37
2018-09-06T02:12:20.935Z,1009.32
2018-09-06T02:13:20.938Z,1009.27
2018-09-06T02:14:20.936Z,1009.26
2018-09-06T02:15:20.936Z,1009.28
2018-09-06T02:16:20.936Z,1009.30
2018-09-06T02:17:20.929Z,1009.38
2018-09-06T02:18:20.929Z,1009.39
2018-09-06T02:19:20.933Z,1009.43
2018-09-06T02:20:20.933Z,1009.48
2018-09-06T02:21:20.925Z,1009.48
2018-09-06T02:22:20.924Z,1009.57
2018-09-06T02:23:20.924Z,1009.55
2018-09-06T02:24:21.001Z,1009.55
2018-09-06T02:25:20.926Z,1009.53
2018-09-06T02:26:20.925Z,1009.47
2018-09-06T02:27:20.925Z,1009.51
2018-09-06T02:28:20.924Z,1009.54
2018-09-06T02:29:20.918Z,1009.49
2018-09-06T02:30:20.918Z,1009.56
2018-09-06T02:31:20.918Z,1009.57
2018-09-06T02:32:20.916Z,1009.61
2018-09-06T02:33:20.921Z,1009.58
2018-09-06T02:34:20.918Z,1009.54
2018-09-06T02:35:20.912Z,1009.47
2018-09-06T02:36:20.911Z,1009.42
2018-09-06T02:37:20.915Z,1009.42
2018-09-06T02:38:20.914Z,1009.38
2018-09-06T02:39:20.912Z,1009.44
2018-09-06T02:40:20.911Z,1009.39
2018-09-06T02:41:20.908Z,1009.34
2018-09-06T02:42:20.905Z,1009.31
2018-09-06T02:43:20.904Z,1009.29
2018-09-06T02:44:20.902Z,1009.24
2018-09-06T02:45:20.908Z,1009.25
2018-09-06T02:46:20.903Z,1009.24
2018-09-06T02:47:20.906Z,1009.25
2018-09-06T02:48:20.902Z,1009.27
2018-09-06T02:49:20.894Z,1009.27
2018-09-06T02:50:20.894Z,1009.33
2018-09-06T02:51:20.898Z,1009.29
2018-09-06T02:52:20.897Z,1009.28
2018-09-06T02:53:20.890Z,1009.28
2018-09-06T02:54:20.889Z,1009.27
2018-09-06T02:55:20.891Z,1009.26
2018-09-06T02:56:20.886Z,1009.23
2018-09-06T02:57:20.889Z,1009.19
2018-09-06T02:58:20.887Z,1009.18
2018-09-06T02:59:20.905Z,1009.20
2018-09-06T03:00:20.886Z,1009.20
2018-09-06T03:01:20.878Z,1009.18
2018-09-06T03:02:20.879Z,1009.14
2018-09-06T03:03:20.878Z,1009.13
2018-09-06T03:04:20.875Z,1009.07
2018-09-06T03:05:20.879Z,1009.12
2018-09-06T03:06:20.876Z,1009.12
2018-09-06T03:07:20.871Z,1009.10
2018-09-06T03:08:20.870Z,1009.08
2018-09-06T03:09:20.872Z,1009.06
2018-09-06T03:10:20.871Z,1009.08
2018-09-06T03:11:20.870Z,1009.09
2018-09-06T03:12:20.870Z,1009.07
2018-09-06T03:13:20.862Z,1009.06
2018-09-06T03:14:20.861Z,1009.01
2018-09-06T03:15:20.870Z,1009.06
2018-09-06T03:16:20.860Z,1009.07
2018-09-06T03:17:20.863Z,1009.04
2018-09-06T03:18:20.861Z,1009.06
2018-09-06T03:19:20.860Z,1009.06
2018-09-06T03:20:20.857Z,1009.04
2018-09-06T03:21:20.855Z,1009.02
2018-09-06T03:22:20.855Z,1008.98
2018-09-06T03:23:20.857Z,1009.00
2018-09-06T03:24:20.854Z,1008.99
2018-09-06T03:25:20.846Z,1008.95
2018-09-06T03:26:20.846Z,1008.93
2018-09-06T03:27:20.844Z,1008.91
2018-09-06T03:28:20.843Z,1008.92
2018-09-06T03:29:20.846Z,1008.87
2018-09-06T03:30:20.845Z,1008.82
2018-09-06T03:31:20.844Z,1008.82
2018-09-06T03:32:20.843Z,1008.84
2018-09-06T03:33:20.835Z,1008.78
2018-09-06T03:34:20.833Z,1008.78
2018-09-06T03:35:20.838Z,1008.75
2018-09-06T03:36:20.832Z,1008.69
2018-09-06T03:37:20.833Z,1008.68
2018-09-06T03:38:20.831Z,1008.75
2018-09-06T03:39:20.826Z,1008.72
2018-09-06T03:40:20.824Z,1008.74
2018-09-06T03:41:20.826Z,1008.84
2018-09-06T03:42:20.823Z,1008.86
2018-09-06T03:43:20.823Z,1008.85
2018-09-06T03:44:20.821Z,1008.79
2018-09-06T03:45:20.813Z,1008.72
2018-09-06T03:46:20.811Z,1008.64
2018-09-06T03:47:20.813Z,1008.59
2018-09-06T03:48:20.808Z,1008.58
2018-09-06T03:49:20.813Z,1008.59
2018-09-06T03:50:20.808Z,1008.66
2018-09-06T03:51:20.805Z,1008.71
2018-09-06T03:52:20.806Z,1008.74
2018-09-06T03:53:20.808Z,1008.71
2018-09-06T03:54:20.801Z,1008.73
2018-09-06T03:55:20.797Z,1008.68
2018-09-06T03:56:20.811Z,1008.64
2018-09-06T03:57:20.787Z,1008.63
2018-09-06T03:58:20.790Z,1008.60
2018-09-06T03:59:20.784Z,1008.59
2018-09-06T04:00:20.787Z,1008.60
2018-09-06T04:01:20.784Z,1008.64
2018-09-06T04:02:20.795Z,1008.68
2018-09-06T04:03:20.775Z,1008.73
2018-09-06T04:04:20.774Z,1008.70
2018-09-06T04:05:20.777Z,1008.66
2018-09-06T04:06:20.780Z,1008.70
2018-09-06T04:07:20.771Z,1008.75
2018-09-06T04:08:20.768Z,1008.73
2018-09-06T04:09:20.760Z,1008.76
2018-09-06T04:10:20.759Z,1008.78
2018-09-06T04:11:20.761Z,1008.81
2018-09-06T04:12:20.758Z,1008.85
2018-09-06T04:13:20.750Z,1008.82
2018-09-06T04:14:20.748Z,1008.84
2018-09-06T04:15:20.746Z,1008.77
2018-09-06T04:16:20.745Z,1008.85
2018-09-06T04:17:20.747Z,1008.84
2018-09-06T04:18:20.752Z,1008.90
2018-09-06T04:19:20.742Z,1008.92
2018-09-06T04:20:20.741Z,1008.96
2018-09-06T04:21:20.733Z,1008.98
2018-09-06T04:22:20.730Z,1009.08
2018-09-06T04:23:20.727Z,1009.06
2018-09-06T04:24:20.799Z,1009.07
2018-09-06T04:25:20.726Z,1009.12
2018-09-06T04:26:20.723Z,1009.09
2018-09-06T04:27:20.741Z,1009.09
2018-09-06T04:28:20.715Z,1009.09
2018-09-06T04:29:20.717Z,1009.10
2018-09-06T04:30:20.714Z,1009.10
2018-09-06T04:31:20.712Z,1009.14
2018-09-06T04:32:20.710Z,1009.15
2018-09-06T04:33:20.700Z,1009.14
2018-09-06T04:34:20.699Z,1009.16
2018-09-06T04:35:20.747Z,1009.17
2018-09-06T04:36:20.695Z,1009.14
2018-09-06T04:37:20.696Z,1009.14
2018-09-06T04:38:20.693Z,1009.13
2018-09-06T04:39:20.689Z,1009.11
2018-09-06T04:40:20.686Z,1009.10
2018-09-06T04:41:20.679Z,1009.08
2018-09-06T04:42:20.676Z,1009.06
2018-09-06T04:43:20.678Z,1009.01
2018-09-06T04:44:20.676Z,1008.98
2018-09-06T04:45:20.670Z,1008.90
2018-09-06T04:46:20.666Z,1008.97
2018-09-06T04:47:20.663Z,1008.97
2018-09-06T04:48:20.661Z,1009.01
2018-09-06T04:49:20.660Z,1009.06
2018-09-06T04:50:20.658Z,1009.05
2018-09-06T04:51:20.657Z,1009.08
2018-09-06T04:52:20.653Z,1009.08
2018-09-06T04:53:20.644Z,1009.09
2018-09-06T04:54:20.642Z,1009.07
2018-09-06T04:55:20.678Z,1009.07
2018-09-06T04:56:20.637Z,1009.07
2018-09-06T04:57:20.637Z,1009.03
2018-09-06T04:58:20.692Z,1009.04
2018-09-06T04:59:20.627Z,1009.03
2018-09-06T05:00:20.625Z,1009.07
2018-09-06T05:01:20.625Z,1009.02
2018-09-06T05:02:20.622Z,1009.02
2018-09-06T05:03:20.629Z,1008.99
2018-09-06T05:04:20.655Z,1009.01
2018-09-06T05:05:20.609Z,1008.98
2018-09-06T05:06:20.642Z,1009.05
2018-09-06T05:07:20.606Z,1009.03
2018-09-06T05:08:20.599Z,1009.09
2018-09-06T05:09:20.601Z,1009.09
2018-09-06T05:10:20.600Z,1009.07
2018-09-06T05:11:20.596Z,1009.04
2018-09-06T05:12:20.597Z,1009.03
2018-09-06T05:13:20.585Z,1009.04
2018-09-06T05:14:20.581Z,1009.06
2018-09-06T05:15:20.584Z,1009.04
2018-09-06T05:16:20.582Z,1009.10
2018-09-06T05:17:20.573Z,1009.04
2018-09-06T05:18:20.571Z,1009.04
2018-09-06T05:19:20.568Z,1009.02
2018-09-06T05:20:20.564Z,1009.00
2018-09-06T05:21:20.565Z,1009.00
2018-09-06T05:22:20.563Z,1009.07
2018-09-06T05:23:20.560Z,1008.97
2018-09-06T05:24:20.558Z,1008.98
2018-09-06T05:25:20.549Z,1008.94
2018-09-06T05:26:20.547Z,1008.93
2018-09-06T05:27:20.546Z,1008.94
2018-09-06T05:28:20.541Z,1008.95
2018-09-06T05:29:20.544Z,1008.97
2018-09-06T05:30:20.541Z,1008.91
2018-09-06T05:31:20.537Z,1008.93
2018-09-06T05:32:20.531Z,1008.90
2018-09-06T05:33:20.532Z,1008.91
2018-09-06T05:34:20.530Z,1008.88
2018-09-06T05:35:20.534Z,1008.81
2018-09-06T05:36:20.583Z,1008.82
2018-09-06T05:37:20.516Z,1008.78
2018-09-06T05:38:20.513Z,1008.77
2018-09-06T05:39:20.511Z,1008.70
2018-09-06T05:40:20.508Z,1008.72
2018-09-06T05:41:20.509Z,1008.74
2018-09-06T05:42:20.509Z,1008.76
2018-09-06T05:43:20.506Z,1008.77
2018-09-06T05:44:20.506Z,1008.75
2018-09-06T05:45:20.498Z,1008.77
2018-09-06T05:46:20.491Z,1008.71
2018-09-06T05:47:20.497Z,1008.74
2018-09-06T05:48:20.491Z,1008.73
2018-09-06T05:49:20.484Z,1008.73
2018-09-06T05:50:20.480Z,1008.76
2018-09-06T05:51:20.477Z,1008.78
2018-09-06T05:52:20.475Z,1008.77
2018-09-06T05:53:20.514Z,1008.72
2018-09-06T05:54:20.473Z,1008.72
2018-09-06T05:55:20.471Z,1008.75
2018-09-06T05:56:20.469Z,1008.74
2018-09-06T05:57:20.460Z,1008.74
2018-09-06T05:58:20.460Z,1008.77
2018-09-06T05:59:20.456Z,1008.77
2018-09-06T06:00:20.461Z,1008.80
2018-09-06T06:01:20.454Z,1008.80
2018-09-06T06:02:20.452Z,1008.78
2018-09-06T06:03:20.445Z,1008.70
2018-09-06T06:04:20.443Z,1008.76
2018-09-06T06:05:20.474Z,1008.75
2018-09-06T06:06:20.440Z,1008.67
2018-09-06T06:07:20.438Z,1008.69
2018-09-06T06:08:20.435Z,1008.66
2018-09-06T06:09:20.427Z,1008.68
2018-09-06T06:10:20.424Z,1008.68
2018-09-06T06:11:20.423Z,1008.62
2018-09-06T06:12:20.419Z,1008.63
2018-09-06T06:13:20.421Z,1008.55
2018-09-06T06:14:20.417Z,1008.59
2018-09-06T06:15:20.414Z,1008.57
2018-09-06T06:16:20.411Z,1008.51
2018-09-06T06:17:20.405Z,1008.45
2018-09-06T06:18:20.401Z,1008.44
2018-09-06T06:19:20.403Z,1008.42
2018-09-06T06:20:20.401Z,1008.38
2018-09-06T06:21:20.391Z,1008.32
2018-09-06T06:22:20.390Z,1008.35
2018-09-06T06:23:20.393Z,1008.25
2018-09-06T06:24:20.385Z,1008.28
2018-09-06T06:25:20.386Z,1008.30
2018-09-06T06:26:20.383Z,1008.25
2018-09-06T06:27:20.380Z,1008.21
2018-09-06T06:28:20.378Z,1008.25
2018-09-06T06:29:20.373Z,1008.25
2018-09-06T06:30:20.369Z,1008.23
2018-09-06T06:31:20.364Z,1008.23
2018-09-06T06:32:20.449Z,1008.24
2018-09-06T06:33:20.362Z,1008.24
2018-09-06T06:34:20.358Z,1008.25
2018-09-06T06:35:20.361Z,1008.27
2018-09-06T06:36:20.348Z,1008.27
2018-09-06T06:37:20.353Z,1008.29
2018-09-06T06:38:20.346Z,1008.37
2018-09-06T06:39:20.342Z,1008.37
2018-09-06T06:40:20.339Z,1008.36
2018-09-06T06:41:20.332Z,1008.38
2018-09-06T06:42:20.332Z,1008.43
2018-09-06T06:43:20.326Z,1008.44
2018-09-06T06:44:20.323Z,1008.41
2018-09-06T06:45:20.327Z,1008.43
2018-09-06T06:46:20.322Z,1008.45
2018-09-06T06:47:20.319Z,1008.43
2018-09-06T06:48:20.316Z,1008.46
2018-09-06T06:49:20.306Z,1008.41
2018-09-06T06:50:20.321Z,1008.48
2018-09-06T06:51:20.308Z,1008.49
2018-09-06T06:52:20.303Z,1008.47
2018-09-06T06:53:20.295Z,1008.44
2018-09-06T06:54:20.295Z,1008.46
2018-09-06T06:55:20.289Z,1008.40
2018-09-06T06:56:20.288Z,1008.41
2018-09-06T06:57:20.290Z,1008.39
2018-09-06T06:58:20.287Z,1008.38
2018-09-06T06:59:20.283Z,1008.35
2018-09-06T07:00:20.279Z,1008.35
2018-09-06T07:01:20.271Z,1008.29
2018-09-06T07:02:20.270Z,1008.30
2018-09-06T07:03:20.265Z,1008.32
2018-09-06T07:04:20.351Z,1008.27
2018-09-06T07:05:20.265Z,1008.33
2018-09-06T07:06:20.262Z,1008.27
2018-09-06T07:07:20.255Z,1008.25
2018-09-06T07:08:20.252Z,1008.19
2018-09-06T07:09:20.253Z,1008.20
2018-09-06T07:10:20.249Z,1008.22
2018-09-06T07:11:20.248Z,1008.20
2018-09-06T07:12:20.245Z,1008.20
2018-09-06T07:13:20.237Z,1008.23
2018-09-06T07:14:20.235Z,1008.25
2018-09-06T07:15:20.231Z,1008.23
2018-09-06T07:16:20.229Z,1008.22
2018-09-06T07:17:20.230Z,1008.21
2018-09-06T07:18:20.403Z,1008.30
2018-09-06T07:19:20.228Z,1008.29
2018-09-06T07:20:20.223Z,1008.27
2018-09-06T07:21:20.216Z,1008.33
2018-09-06T07:22:20.212Z,1008.34
2018-09-06T07:23:20.218Z,1008.33
2018-09-06T07:24:20.213Z,1008.36
2018-09-06T07:25:20.205Z,1008.35
2018-09-06T07:26:20.201Z,1008.39
2018-09-06T07:27:20.199Z,1008.40
2018-09-06T07:28:20.199Z,1008.35
2018-09-06T07:29:20.197Z,1008.35
2018-09-06T07:30:20.235Z,1008.34
2018-09-06T07:31:20.192Z,1008.33
2018-09-06T07:32:20.189Z,1008.36
2018-09-06T07:33:20.183Z,1008.29
2018-09-06T07:34:20.179Z,1008.36
2018-09-06T07:35:20.271Z,1008.35
2018-09-06T07:36:20.175Z,1008.36
2018-09-06T07:37:20.177Z,1008.41
2018-09-06T07:38:20.174Z,1008.39
2018-09-06T07:39:20.167Z,1008.39
2018-09-06T07:40:20.164Z,1008.45
2018-09-06T07:41:20.170Z,1008.44
2018-09-06T07:42:20.163Z,1008.48
2018-09-06T07:43:20.159Z,1008.49
2018-09-06T07:44:20.157Z,1008.52
2018-09-06T07:45:20.148Z,1008.54
2018-09-06T07:46:20.146Z,1008.56
2018-09-06T07:47:20.144Z,1008.56
2018-09-06T07:48:20.191Z,1008.54
2018-09-06T07:49:20.142Z,1008.53
2018-09-06T07:50:20.140Z,1008.48
2018-09-06T07:51:20.138Z,1008.49
2018-09-06T07:52:20.193Z,1008.50
2018-09-06T07:53:20.128Z,1008.49
2018-09-06T07:54:20.125Z,1008.48
2018-09-06T07:55:20.128Z,1008.48
2018-09-06T07:56:20.126Z,1008.49
2018-09-06T07:57:20.118Z,1008.55
2018-09-06T07:58:20.116Z,1008.46
2018-09-06T07:59:20.112Z,1008.44
2018-09-06T08:00:20.110Z,1008.51
2018-09-06T08:01:20.112Z,1008.49
2018-09-06T08:02:20.109Z,1008.51
2018-09-06T08:03:20.108Z,1008.57
2018-09-06T08:04:20.105Z,1008.48
2018-09-06T08:05:20.103Z,1008.53
2018-09-06T08:06:20.096Z,1008.50
2018-09-06T08:07:20.093Z,1008.51
2018-09-06T08:08:20.091Z,1008.52
2018-09-06T08:09:20.094Z,1008.56
2018-09-06T08:10:20.092Z,1008.54
2018-09-06T08:11:20.084Z,1008.50
2018-09-06T08:12:20.082Z,1008.50
2018-09-06T08:13:20.088Z,1008.52
2018-09-06T08:14:20.081Z,1008.61
2018-09-06T08:15:20.080Z,1008.56
2018-09-06T08:16:20.077Z,1008.57
2018-09-06T08:17:20.071Z,1008.63
2018-09-06T08:18:20.069Z,1008.62
2018-09-06T08:19:20.070Z,1008.61
2018-09-06T08:20:20.065Z,1008.55
2018-09-06T08:21:20.068Z,1008.56
2018-09-06T08:22:20.065Z,1008.59
2018-09-06T08:23:20.064Z,1008.58
2018-09-06T08:24:20.073Z,1008.59
2018-09-06T08:25:20.054Z,1008.55
2018-09-06T08:26:20.053Z,1008.55
2018-09-06T08:27:20.058Z,1008.58
2018-09-06T08:28:20.057Z,1008.57
2018-09-06T08:29:20.049Z,1008.61
2018-09-06T08:30:20.049Z,1008.63
2018-09-06T08:31:20.076Z,1008.62
2018-09-06T08:32:20.043Z,1008.63
2018-09-06T08:33:20.045Z,1008.66
2018-09-06T08:34:20.043Z,1008.62
2018-09-06T08:35:20.044Z,1008.67
2018-09-06T08:36:20.043Z,1008.67
2018-09-06T08:37:20.039Z,1008.65
2018-09-06T08:38:20.033Z,1008.64
2018-09-06T08:39:20.037Z,1008.64
2018-09-06T08:40:20.032Z,1008.61
2018-09-06T08:41:20.038Z,1008.66
2018-09-06T08:42:20.034Z,1008.63
2018-09-06T08:43:20.028Z,1008.64
2018-09-06T08:44:20.026Z,1008.58
2018-09-06T08:45:20.052Z,1008.64
2018-09-06T08:46:20.027Z,1008.63
2018-09-06T08:47:20.027Z,1008.61
2018-09-06T08:48:20.025Z,1008.63
2018-09-06T08:49:20.019Z,1008.56
2018-09-06T08:50:20.019Z,1008.57
2018-09-06T08:51:20.016Z,1008.59
2018-09-06T08:52:20.020Z,1008.56
2018-09-06T08:53:20.019Z,1008.59
2018-09-06T08:54:20.016Z,1008.58
2018-09-06T08:55:20.017Z,1008.56
2018-09-06T08:56:20.016Z,1008.61
2018-09-06T08:57:20.010Z,1008.59
2018-09-06T08:58:20.040Z,1008.57
2018-09-06T08:59:20.014Z,1008.56
2018-09-06T09:00:20.012Z,1008.60
2018-09-06T09:01:20.003Z,1008.57
2018-09-06T09:02:20.125Z,1008.59
2018-09-06T09:03:20.072Z,1008.57
2018-09-06T09:04:20.006Z,1008.55
2018-09-06T09:05:20.002Z,1008.55
2018-09-06T09:06:20.000Z,1008.55
2018-09-06T09:07:19.999Z,1008.51
2018-09-06T09:08:20.030Z,1008.53
2018-09-06T09:09:19.996Z,1008.56
2018-09-06T09:10:19.991Z,1008.55
2018-09-06T09:11:19.989Z,1008.50
2018-09-06T09:12:20.002Z,1008.55
2018-09-06T09:13:20.026Z,1008.51
2018-09-06T09:14:19.990Z,1008.52
2018-09-06T09:15:19.985Z,1008.57
2018-09-06T09:16:19.984Z,1008.57
2018-09-06T09:17:19.989Z,1008.53
2018-09-06T09:18:19.991Z,1008.54
2018-09-06T09:19:19.984Z,1008.53
2018-09-06T09:20:19.982Z,1008.57
2018-09-06T09:21:19.977Z,1008.59
2018-09-06T09:22:19.985Z,1008.58
2018-09-06T09:23:19.976Z,1008.58
2018-09-06T09:24:19.973Z,1008.61
2018-09-06T09:25:19.980Z,1008.56
2018-09-06T09:26:19.977Z,1008.55
2018-09-06T09:27:19.975Z,1008.54
2018-09-06T09:28:19.973Z,1008.54
2018-09-06T09:29:19.974Z,1008.53
2018-09-06T09:30:19.966Z,1008.52
2018-09-06T09:31:19.969Z,1008.50
2018-09-06T09:32:19.969Z,1008.51
2018-09-06T09:33:19.966Z,1008.49
2018-09-06T09:34:19.962Z,1008.52
2018-09-06T09:35:19.962Z,1008.48
2018-09-06T09:36:19.960Z,1008.47
2018-09-06T09:37:19.965Z,1008.48
2018-09-06T09:38:19.964Z,1008.52
2018-09-06T09:39:19.962Z,1008.47
2018-09-06T09:40:19.962Z,1008.48
2018-09-06T09:41:19.956Z,1008.51
2018-09-06T09:42:19.954Z,1008.50
2018-09-06T09:43:20.003Z,1008.49
2018-09-06T09:44:19.953Z,1008.46
2018-09-06T09:45:19.956Z,1008.49
2018-09-06T09:47:41.498Z,1008.48
2018-09-06T09:48:41.490Z,1008.49
2018-09-06T09:49:41.558Z,1008.47
2018-09-06T09:51:20.787Z,1008.46
2018-09-06T09:52:20.779Z,1008.46
2018-09-06T09:53:20.778Z,1008.44
2018-09-06T09:54:20.776Z,1008.46
2018-09-06T09:55:20.778Z,1008.41
2018-09-06T09:56:20.778Z,1008.45
2018-09-06T09:57:20.777Z,1008.46
2018-09-06T09:58:20.772Z,1008.44
2018-09-06T09:59:20.771Z,1008.46
2018-09-06T10:00:20.774Z,1008.47
2018-09-06T10:01:20.774Z,1008.44
2018-09-06T10:02:20.772Z,1008.47
2018-09-06T10:03:20.772Z,1008.44
2018-09-06T10:04:20.766Z,1008.42
2018-09-06T10:05:20.764Z,1008.41
2018-09-06T10:06:20.766Z,1008.45
2018-09-06T10:07:20.761Z,1008.43
2018-09-06T10:08:20.766Z,1008.40
2018-09-06T10:09:20.764Z,1008.44
2018-09-06T10:10:20.761Z,1008.43
2018-09-06T10:11:20.761Z,1008.39
2018-09-06T10:12:20.756Z,1008.46
2018-09-06T10:13:20.753Z,1008.43
2018-09-06T10:14:20.755Z,1008.41
2018-09-06T10:15:20.756Z,1008.42
2018-09-06T10:16:20.750Z,1008.40
2018-09-06T10:17:20.749Z,1008.38
2018-09-06T10:18:20.746Z,1008.40
2018-09-06T10:19:20.744Z,1008.43
2018-09-06T10:20:20.748Z,1008.38
2018-09-06T10:21:20.746Z,1008.43
2018-09-06T10:22:20.744Z,1008.40
2018-09-06T10:23:20.743Z,1008.36
2018-09-06T10:24:20.738Z,1008.44
2018-09-06T10:25:20.734Z,1008.49
2018-09-06T10:26:20.744Z,1008.40
2018-09-06T10:27:20.732Z,1008.38
2018-09-06T10:28:20.734Z,1008.43
2018-09-06T10:29:20.732Z,1008.46
2018-09-06T10:30:20.729Z,1008.42
2018-09-06T10:31:20.724Z,1008.38
2018-09-06T10:32:20.728Z,1008.44
2018-09-06T10:33:20.726Z,1008.45
2018-09-06T10:34:20.725Z,1008.46
2018-09-06T10:35:20.742Z,1008.41
2018-09-06T10:36:20.716Z,1008.44
2018-09-06T10:37:20.713Z,1008.39
2018-09-06T10:38:20.718Z,1008.39
2018-09-06T10:39:20.783Z,1008.38
2018-09-06T10:40:20.714Z,1008.40
2018-09-06T10:41:20.711Z,1008.41
2018-09-06T10:42:20.710Z,1008.39
2018-09-06T10:43:20.706Z,1008.41
2018-09-06T10:44:20.699Z,1008.40
2018-09-06T10:45:20.698Z,1008.39
2018-09-06T10:46:20.698Z,1008.35
2018-09-06T10:47:20.697Z,1008.35
2018-09-06T10:48:20.690Z,1008.35
2018-09-06T10:49:20.688Z,1008.30
2018-09-06T10:50:20.688Z,1008.31
2018-09-06T10:51:20.684Z,1008.28
2018-09-06T10:52:20.687Z,1008.31
2018-09-06T10:53:20.688Z,1008.23
2018-09-06T10:54:20.681Z,1008.25
2018-09-06T10:55:20.680Z,1008.27
2018-09-06T10:56:20.675Z,1008.23
2018-09-06T10:57:20.671Z,1008.21
2018-09-06T10:58:20.673Z,1008.18
2018-09-06T10:59:20.667Z,1008.17
2018-09-06T11:00:20.672Z,1008.19
2018-09-06T11:01:20.668Z,1008.19
2018-09-06T11:02:20.661Z,1008.14
2018-09-06T11:03:20.659Z,1008.19
2018-09-06T11:04:20.664Z,1008.21
2018-09-06T11:05:20.660Z,1008.21
2018-09-06T11:06:20.656Z,1008.21
2018-09-06T11:11:20.643Z,1008.21
2018-09-06T11:12:20.645Z,1008.24
2018-09-06T11:13:20.643Z,1008.24
2018-09-06T11:14:20.650Z,1008.20
2018-09-06T11:15:20.642Z,1008.19
2018-09-06T11:16:20.633Z,1008.21
2018-09-06T11:17:20.630Z,1008.21
2018-09-06T11:18:20.633Z,1008.18
2018-09-06T11:19:20.630Z,1008.19
2018-09-06T11:20:20.625Z,1008.23
2018-09-06T11:21:20.780Z,1008.23
2018-09-06T11:22:20.756Z,1008.23
2018-09-06T11:23:20.618Z,1008.22
2018-09-06T11:24:20.620Z,1008.18
2018-09-06T11:25:20.624Z,1008.19
2018-09-06T11:26:20.616Z,1008.13
2018-09-06T11:27:20.645Z,1008.14
2018-09-06T11:28:20.608Z,1008.15
2018-09-06T11:29:20.606Z,1008.15
2018-09-06T11:30:20.605Z,1008.17
2018-09-06T11:31:20.603Z,1008.20
2018-09-06T11:32:20.606Z,1008.18
2018-09-06T11:33:20.646Z,1008.24
2018-09-06T11:34:20.597Z,1008.22
2018-09-06T11:35:20.602Z,1008.20
2018-09-06T11:36:20.599Z,1008.24
2018-09-06T11:37:20.597Z,1008.23
2018-09-06T11:38:20.597Z,1008.25
2018-09-06T11:39:20.595Z,1008.21
2018-09-06T11:40:20.593Z,1008.24
2018-09-06T11:41:20.586Z,1008.27
2018-09-06T11:42:20.586Z,1008.27
2018-09-06T11:43:20.585Z,1008.27
2018-09-06T11:44:20.591Z,1008.29
2018-09-06T11:45:20.585Z,1008.32
2018-09-06T11:46:20.586Z,1008.28
2018-09-06T11:47:20.616Z,1008.33
2018-09-06T11:48:20.581Z,1008.33
2018-09-06T11:49:20.581Z,1008.31
2018-09-06T11:50:20.583Z,1008.28
2018-09-06T11:51:20.583Z,1008.30
2018-09-06T11:52:20.602Z,1008.31
2018-09-06T11:53:20.574Z,1008.28
2018-09-06T11:54:20.573Z,1008.31
2018-09-06T11:55:20.574Z,1008.23
2018-09-06T11:59:20.598Z,1008.24
2018-09-06T12:00:20.568Z,1008.19
2018-09-06T12:01:20.567Z,1008.18
2018-09-06T12:02:20.567Z,1008.21
2018-09-06T12:03:20.565Z,1008.21
2018-09-06T12:04:20.568Z,1008.20
2018-09-06T12:05:20.566Z,1008.19
2018-09-06T12:06:20.561Z,1008.20
2018-09-06T12:07:20.560Z,1008.21
2018-09-06T12:08:20.563Z,1008.16
2018-09-06T12:09:20.561Z,1008.15
2018-09-06T12:10:20.561Z,1008.18
2018-09-06T12:11:20.560Z,1008.16
2018-09-06T12:12:20.556Z,1008.18
2018-09-06T12:13:20.553Z,1008.15
2018-09-06T12:14:20.552Z,1008.12